GIBOR2 LLEK-LLEK

Flight info

Callsign GIBOR2
Flight time 0h 20m
Altitude 10000
Route SHAKNAI
Aircraft F15/L-SDGRUY/LB1

Departure

Time 2026-04-20 16:28
Airport Tel Nof Air Base (LLEK)

Arrival

Time 2026-04-20 16:48
Airport Tel Nof Air Base (LLEK)
Time Latitude Longitude Altitude Speed Heading
2026-04-20 16:17 31.84699 34.81587 172 ft 0 kts 305°
2026-04-20 16:18 31.84701 34.81584 172 ft 0 kts 117°
2026-04-20 16:23 31.84700 34.81585 170 ft 3 kts 118°
2026-04-20 16:24 31.84676 34.81693 170 ft 15 kts 97°
2026-04-20 16:24 31.84630 34.81745 172 ft 11 kts 206°
2026-04-20 16:24 31.84535 34.81656 172 ft 14 kts 191°
2026-04-20 16:24 31.84374 34.81641 174 ft 31 kts 182°
2026-04-20 16:25 31.84111 34.81628 178 ft 39 kts 183°
2026-04-20 16:25 31.83851 34.81615 181 ft 32 kts 183°
2026-04-20 16:25 31.83657 34.81603 187 ft 28 kts 182°
2026-04-20 16:25 31.83456 34.81585 198 ft 30 kts 179°
2026-04-20 16:26 31.83242 34.81578 194 ft 32 kts 179°
2026-04-20 16:26 31.82990 34.81565 195 ft 41 kts 184°
2026-04-20 16:26 31.82692 34.81549 196 ft 33 kts 182°
2026-04-20 16:26 31.82568 34.81547 201 ft 11 kts 134°
2026-04-20 16:27 31.82554 34.81661 197 ft 16 kts 87°
2026-04-20 16:27 31.82616 34.81719 202 ft 14 kts
2026-04-20 16:27 31.82631 34.81719 197 ft 0 kts
2026-04-20 16:27 31.82996 34.81744 197 ft 167 kts
2026-04-20 16:28 31.84593 34.81877 503 ft 249 kts
2026-04-20 16:28 31.86190 34.82425 1238 ft 246 kts 48°
2026-04-20 16:28 31.86341 34.84399 2130 ft 269 kts 125°
2026-04-20 16:28 31.84834 34.85537 2820 ft 254 kts 174°
2026-04-20 16:29 31.83164 34.85103 3558 ft 256 kts 225°
2026-04-20 16:29 31.82484 34.83374 4287 ft 225 kts 272°
2026-04-20 16:29 31.83070 34.81742 5695 ft 245 kts 330°
2026-04-20 16:29 31.84721 34.82060 7069 ft 286 kts 58°
2026-04-20 16:30 31.84425 34.84405 8045 ft 332 kts 151°
2026-04-20 16:30 31.82425 34.84115 8512 ft 301 kts 243°
2026-04-20 16:30 31.82459 34.81848 8892 ft 305 kts 296°
2026-04-20 16:30 31.83548 34.79826 8957 ft 276 kts 304°
2026-04-20 16:31 31.84627 34.78185 8954 ft 262 kts 307°
2026-04-20 16:31 31.85833 34.76470 8950 ft 277 kts 307°
2026-04-20 16:31 31.87134 34.74624 9075 ft 300 kts 309°
2026-04-20 16:31 31.88399 34.72864 9078 ft 264 kts 307°
2026-04-20 16:32 31.89508 34.71119 9160 ft 277 kts 302°
2026-04-20 16:32 31.90553 34.69265 9091 ft 269 kts 301°
2026-04-20 16:32 31.91615 34.67414 9089 ft 267 kts 303°
2026-04-20 16:32 31.92860 34.65873 8818 ft 274 kts 338°
2026-04-20 16:33 31.94920 34.65929 7486 ft 321 kts 24°
2026-04-20 16:33 31.96981 34.67342 5111 ft 353 kts 23°
2026-04-20 16:33 31.99157 34.68501 3402 ft 337 kts 22°
2026-04-20 16:33 32.01250 34.69615 1985 ft 323 kts 23°
2026-04-20 16:34 32.03204 34.70719 1038 ft 305 kts 21°
2026-04-20 16:34 32.05328 34.71756 691 ft 347 kts 20°
2026-04-20 16:34 32.07575 34.72821 603 ft 357 kts 20°
2026-04-20 16:35 32.08975 34.73938 662 ft 351 kts 54°
2026-04-20 16:35 32.08384 34.76249 886 ft 325 kts 180°
2026-04-20 16:35 32.06647 34.75187 325 ft 291 kts 271°
2026-04-20 16:35 32.08308 34.73659 1267 ft 293 kts 230°
2026-04-20 16:36 32.06326 34.74194 841 ft 452 kts 112°
2026-04-20 16:36 32.07673 34.76432 738 ft 368 kts 13°
2026-04-20 16:36 32.09701 34.74999 1094 ft 406 kts 263°
2026-04-20 16:36 32.07919 34.73332 2170 ft 291 kts 200°
2026-04-20 16:37 32.06740 34.72665 2870 ft 260 kts 243°
2026-04-20 16:37 32.07412 34.71724 1249 ft 355 kts 64°
2026-04-20 16:37 32.06708 34.74800 403 ft 389 kts 105°
2026-04-20 16:37 32.06628 34.75493 3252 ft 217 kts 304°
2026-04-20 16:38 32.08046 34.75328 1300 ft 273 kts 36°
2026-04-20 16:38 32.09670 34.74883 965 ft 335 kts 296°
2026-04-20 16:38 32.09207 34.72509 1038 ft 311 kts 213°
2026-04-20 16:38 32.07374 34.73900 585 ft 445 kts 118°
2026-04-20 16:39 32.06305 34.76239 1776 ft 182 kts 125°
2026-04-20 16:39 32.05813 34.75405 2751 ft 299 kts 231°
2026-04-20 16:39 32.05174 34.72974 2634 ft 348 kts 347°
2026-04-20 16:39 32.05149 34.73874 3240 ft 231 kts 246°
2026-04-20 16:40 32.06032 34.72492 2667 ft 289 kts 326°
2026-04-20 16:40 32.07205 34.70269 2935 ft 342 kts 234°
2026-04-20 16:40 32.05169 34.69114 3642 ft 339 kts 195°
2026-04-20 16:40 32.03272 34.68601 5165 ft 259 kts 197°
2026-04-20 16:41 32.01585 34.68113 6381 ft 220 kts 200°
2026-04-20 16:41 32.00029 34.67611 7249 ft 252 kts 199°
2026-04-20 16:41 31.98276 34.67013 7903 ft 275 kts 202°
2026-04-20 16:41 31.96164 34.66243 8245 ft 359 kts 199°
2026-04-20 16:42 31.93762 34.65542 8024 ft 334 kts 197°
2026-04-20 16:42 31.91706 34.65800 7900 ft 266 kts 155°
2026-04-20 16:42 31.90484 34.67184 6549 ft 263 kts 128°
2026-04-20 16:42 31.89066 34.68675 6788 ft 223 kts 213°
2026-04-20 16:43 31.88312 34.67027 7897 ft 237 kts 283°
2026-04-20 16:43 31.89010 34.65477 7707 ft 227 kts 329°
2026-04-20 16:43 31.90543 34.65567 7791 ft 245 kts 39°
2026-04-20 16:43 31.91216 34.67401 7761 ft 263 kts 93°
2026-04-20 16:44 31.90612 34.69499 7846 ft 300 kts 125°
2026-04-20 16:44 31.89472 34.71500 7993 ft 279 kts 128°
2026-04-20 16:44 31.88340 34.73266 7859 ft 262 kts 132°
2026-04-20 16:44 31.87376 34.74979 7330 ft 259 kts 108°
2026-04-20 16:45 31.86951 34.77325 5596 ft 330 kts 99°
2026-04-20 16:45 31.86658 34.80095 4706 ft 339 kts 96°
2026-04-20 16:45 31.86447 34.82798 3636 ft 328 kts 95°
2026-04-20 16:45 31.86197 34.85384 2831 ft 313 kts 110°
2026-04-20 16:46 31.85236 34.87389 2516 ft 249 kts 136°
2026-04-20 16:46 31.84043 34.88525 2445 ft 193 kts 153°
2026-04-20 16:46 31.82872 34.89205 2285 ft 190 kts 169°
2026-04-20 16:46 31.81569 34.88824 2365 ft 229 kts 223°
2026-04-20 16:47 31.80413 34.87413 2522 ft 230 kts 246°
2026-04-20 16:47 31.80413 34.85909 1738 ft 183 kts 292°
2026-04-20 16:47 31.81038 34.84620 1063 ft 167 kts 315°
2026-04-20 16:47 31.81936 34.83897 533 ft 148 kts 327°
2026-04-20 16:48 31.82822 34.83331 220 ft 155 kts 329°
2026-04-20 16:48 31.83692 34.82749 191 ft 130 kts 330°
2026-04-20 16:48 31.84265 34.82364 177 ft 63 kts 330°
2026-04-20 16:48 31.84658 34.82109 166 ft 47 kts 329°
2026-04-20 16:49 31.84672 34.81938 167 ft 29 kts 241°
2026-04-20 16:49 31.84659 34.81801 170 ft 18 kts 257°
2026-04-20 16:49 31.84602 34.81723 170 ft 16 kts 223°
2026-04-20 16:49 31.84579 34.81648 170 ft 8 kts 301°
2026-04-20 16:50 31.84636 34.81540 169 ft 21 kts 301°
2026-04-20 16:50 31.84698 34.81513 169 ft 11 kts 21°
2026-04-20 16:50 31.84714 34.81558 169 ft 0 kts 121°